createdAt,value
2018-11-23T00:00:26.327Z,99.99
2018-11-23T00:01:26.068Z,99.99
2018-11-23T00:02:26.317Z,99.99
2018-11-23T00:03:26.332Z,99.99
2018-11-23T00:04:26.043Z,99.99
2018-11-23T00:05:26.289Z,99.99
2018-11-23T00:06:26.261Z,99.99
2018-11-23T00:07:26.251Z,99.99
2018-11-23T00:08:26.252Z,99.99
2018-11-23T00:09:26.230Z,99.99
2018-11-23T00:10:26.233Z,99.99
2018-11-23T00:11:26.205Z,99.99
2018-11-23T00:12:25.949Z,99.99
2018-11-23T00:13:26.187Z,99.99
2018-11-23T00:14:26.183Z,99.99
2018-11-23T00:15:26.188Z,99.99
2018-11-23T00:16:26.147Z,99.99
2018-11-23T00:17:26.138Z,99.99
2018-11-23T00:18:26.150Z,99.99
2018-11-23T00:19:26.129Z,99.99
2018-11-23T00:20:26.121Z,99.99
2018-11-23T00:21:26.134Z,99.99
2018-11-23T00:22:26.109Z,99.99
2018-11-23T00:23:26.084Z,99.99
2018-11-23T00:24:26.073Z,99.99
2018-11-23T00:25:26.056Z,99.99
2018-11-23T00:26:26.044Z,99.99
2018-11-23T00:27:26.053Z,99.99
2018-11-23T00:28:26.020Z,99.99
2018-11-23T00:29:26.015Z,99.99
2018-11-23T00:30:25.992Z,99.99
2018-11-23T00:31:25.740Z,99.99
2018-11-23T00:32:25.737Z,99.99
2018-11-23T00:33:25.962Z,99.99
2018-11-23T00:34:25.964Z,99.99
2018-11-23T00:35:25.954Z,99.99
2018-11-23T00:36:25.963Z,99.99
2018-11-23T00:37:25.918Z,99.99
2018-11-23T00:38:25.911Z,99.99
2018-11-23T00:39:25.905Z,99.99
2018-11-23T00:40:25.919Z,99.99
2018-11-23T00:41:25.882Z,99.99
2018-11-23T00:42:25.871Z,99.99
2018-11-23T00:43:25.846Z,99.99
2018-11-23T00:44:25.839Z,99.99
2018-11-23T00:45:25.844Z,99.99
2018-11-23T00:46:25.835Z,99.99
2018-11-23T00:47:26.856Z,99.99
2018-11-23T00:48:25.803Z,99.99
2018-11-23T00:49:25.790Z,99.99
2018-11-23T00:50:25.802Z,99.99
2018-11-23T00:51:25.772Z,99.99
2018-11-23T00:52:25.759Z,99.99
2018-11-23T00:53:25.491Z,99.99
2018-11-23T00:54:25.490Z,99.99
2018-11-23T00:55:25.728Z,99.99
2018-11-23T00:56:25.468Z,99.99
2018-11-23T00:57:25.710Z,99.99
2018-11-23T00:58:25.680Z,99.99
2018-11-23T00:59:25.680Z,99.99
2018-11-23T01:00:25.426Z,99.99
2018-11-23T01:01:25.651Z,99.99
2018-11-23T01:02:25.645Z,99.99
2018-11-23T01:03:25.632Z,99.99
2018-11-23T01:04:25.632Z,99.99
2018-11-23T01:05:25.607Z,99.99
2018-11-23T01:06:25.631Z,99.99
2018-11-23T01:07:25.347Z,99.99
2018-11-23T01:08:25.584Z,99.99
2018-11-23T01:09:25.320Z,99.99
2018-11-23T01:10:25.587Z,99.99
2018-11-23T01:11:25.606Z,99.99
2018-11-23T01:12:25.296Z,99.99
2018-11-23T01:13:25.264Z,99.99
2018-11-23T01:14:25.260Z,99.99
2018-11-23T01:15:25.245Z,99.99
2018-11-23T01:16:25.474Z,99.99
2018-11-23T01:17:25.468Z,99.99
2018-11-23T01:18:25.460Z,99.99
2018-11-23T01:19:25.445Z,99.99
2018-11-23T01:20:25.431Z,99.99
2018-11-23T01:21:25.430Z,99.99
2018-11-23T01:22:25.410Z,99.99
2018-11-23T01:23:25.423Z,99.99
2018-11-23T01:24:25.400Z,99.99
2018-11-23T01:25:25.374Z,99.99
2018-11-23T01:26:25.123Z,99.99
2018-11-23T01:27:25.128Z,99.99
2018-11-23T01:28:25.356Z,99.99
2018-11-23T01:29:25.085Z,99.99
2018-11-23T01:30:25.327Z,99.99
2018-11-23T01:31:25.060Z,99.99
2018-11-23T01:32:25.074Z,99.99
2018-11-23T01:33:25.295Z,99.99
2018-11-23T01:34:28.527Z,99.99
2018-11-23T01:35:25.264Z,99.99
2018-11-23T01:36:25.252Z,99.99
2018-11-23T01:37:25.239Z,99.99
2018-11-23T01:38:25.317Z,99.99
2018-11-23T01:39:25.222Z,99.99
2018-11-23T01:40:25.213Z,99.99
2018-11-23T01:41:25.213Z,99.99
2018-11-23T01:42:25.196Z,99.99
2018-11-23T01:43:24.937Z,99.99
2018-11-23T01:44:25.162Z,99.99
2018-11-23T01:45:25.152Z,99.99
2018-11-23T01:46:25.135Z,99.99
2018-11-23T01:47:24.876Z,99.99
2018-11-23T01:48:25.140Z,99.99
2018-11-23T01:49:25.111Z,99.99
2018-11-23T01:50:25.120Z,99.99
2018-11-23T01:51:24.830Z,99.99
2018-11-23T01:52:25.065Z,99.99
2018-11-23T01:53:25.060Z,99.99
2018-11-23T01:54:25.045Z,99.99
2018-11-23T01:55:24.797Z,99.99
2018-11-23T01:56:25.029Z,99.99
2018-11-23T01:57:25.019Z,99.99
2018-11-23T01:58:24.760Z,99.99
2018-11-23T01:59:24.987Z,99.99
2018-11-23T02:00:24.997Z,99.99
2018-11-23T02:01:24.964Z,99.99
2018-11-23T02:02:24.965Z,99.99
2018-11-23T02:03:24.949Z,99.99
2018-11-23T02:04:24.931Z,99.99
2018-11-23T02:05:24.686Z,99.99
2018-11-23T02:06:24.906Z,99.99
2018-11-23T02:07:24.897Z,99.99
2018-11-23T02:08:24.888Z,99.99
2018-11-23T02:09:24.872Z,99.99
2018-11-23T02:10:24.866Z,99.99
2018-11-23T02:11:24.859Z,99.99
2018-11-23T02:12:24.841Z,99.99
2018-11-23T02:13:24.590Z,99.99
2018-11-23T02:14:24.822Z,99.99
2018-11-23T02:15:24.803Z,99.99
2018-11-23T02:16:24.799Z,99.99
2018-11-23T02:17:24.779Z,99.99
2018-11-23T02:18:24.528Z,99.99
2018-11-23T02:19:24.506Z,99.99
2018-11-23T02:20:24.755Z,99.99
2018-11-23T02:21:24.734Z,99.99
2018-11-23T02:22:24.724Z,99.99
2018-11-23T02:23:24.725Z,99.99
2018-11-23T02:24:24.735Z,99.99
2018-11-23T02:25:24.691Z,99.99
2018-11-23T02:26:24.684Z,99.99
2018-11-23T02:27:24.675Z,99.99
2018-11-23T02:28:24.652Z,99.99
2018-11-23T02:29:24.636Z,99.99
2018-11-23T02:30:24.640Z,99.99
2018-11-23T02:31:24.620Z,99.99
2018-11-23T02:32:24.609Z,99.99
2018-11-23T02:33:24.597Z,99.99
2018-11-23T02:34:24.342Z,99.99
2018-11-23T02:35:28.580Z,99.99
2018-11-23T02:36:24.559Z,99.99
2018-11-23T02:37:24.554Z,99.99
2018-11-23T02:38:24.542Z,99.99
2018-11-23T02:39:24.525Z,99.99
2018-11-23T02:40:24.520Z,99.99
2018-11-23T02:41:24.623Z,99.99
2018-11-23T02:42:24.506Z,99.99
2018-11-23T02:43:24.498Z,99.99
2018-11-23T02:44:24.486Z,99.99
2018-11-23T02:45:24.226Z,99.99
2018-11-23T02:46:24.203Z,99.99
2018-11-23T02:47:24.437Z,99.99
2018-11-23T02:48:24.437Z,99.99
2018-11-23T02:49:24.425Z,99.99
2018-11-23T02:50:24.411Z,99.99
2018-11-23T02:51:24.392Z,99.99
2018-11-23T02:52:24.382Z,99.99
2018-11-23T02:53:24.383Z,99.99
2018-11-23T02:54:24.359Z,99.99
2018-11-23T02:55:24.424Z,99.99
2018-11-23T02:56:24.341Z,99.99
2018-11-23T02:57:24.334Z,99.99
2018-11-23T02:58:24.070Z,99.99
2018-11-23T02:59:26.115Z,99.99
2018-11-23T03:00:24.290Z,99.99
2018-11-23T03:01:24.029Z,99.99
2018-11-23T03:02:24.276Z,99.99
2018-11-23T03:03:24.254Z,99.99
2018-11-23T03:04:24.243Z,99.99
2018-11-23T03:05:24.233Z,99.99
2018-11-23T03:06:24.220Z,99.99
2018-11-23T03:07:24.208Z,99.99
2018-11-23T03:08:24.200Z,99.99
2018-11-23T03:09:24.215Z,99.99
2018-11-23T03:10:24.180Z,99.99
2018-11-23T03:11:24.157Z,99.99
2018-11-23T03:12:24.161Z,99.99
2018-11-23T03:13:24.141Z,99.99
2018-11-23T03:14:24.126Z,99.99
2018-11-23T03:15:24.117Z,99.99
2018-11-23T03:16:24.103Z,99.99
2018-11-23T03:17:24.093Z,99.99
2018-11-23T03:18:24.099Z,99.99
2018-11-23T03:19:23.820Z,99.99
2018-11-23T03:20:24.055Z,99.99
2018-11-23T03:21:24.046Z,99.99
2018-11-23T03:22:23.789Z,99.99
2018-11-23T03:23:24.046Z,99.99
2018-11-23T03:24:24.016Z,99.99
2018-11-23T03:25:23.998Z,99.99
2018-11-23T03:26:23.985Z,99.99
2018-11-23T03:27:23.987Z,99.99
2018-11-23T03:28:23.962Z,99.99
2018-11-23T03:29:23.957Z,99.99
2018-11-23T03:30:23.968Z,99.99
2018-11-23T03:31:23.939Z,99.99
2018-11-23T03:32:23.918Z,99.99
2018-11-23T03:33:23.926Z,99.99
2018-11-23T03:34:23.910Z,99.99
2018-11-23T03:35:23.905Z,99.99
2018-11-23T03:36:23.871Z,99.99
2018-11-23T03:37:23.611Z,99.99
2018-11-23T03:38:23.856Z,99.99
2018-11-23T03:39:23.851Z,99.99
2018-11-23T03:40:23.833Z,99.99
2018-11-23T03:41:23.572Z,99.99
2018-11-23T03:42:23.804Z,99.99
2018-11-23T03:43:23.801Z,99.99
2018-11-23T03:44:23.782Z,99.99
2018-11-23T03:45:23.785Z,99.99
2018-11-23T03:46:23.775Z,99.99
2018-11-23T03:47:23.748Z,99.99
2018-11-23T03:48:23.745Z,99.99
2018-11-23T03:49:23.727Z,99.99
2018-11-23T03:50:23.716Z,99.99
2018-11-23T03:51:23.697Z,99.99
2018-11-23T03:52:23.684Z,99.99
2018-11-23T03:53:23.691Z,99.99
2018-11-23T03:54:23.435Z,99.99
2018-11-23T03:55:23.654Z,99.99
2018-11-23T03:56:23.637Z,99.99
2018-11-23T03:57:23.626Z,99.99
2018-11-23T03:58:23.613Z,99.99
2018-11-23T03:59:23.603Z,99.99
2018-11-23T04:00:23.612Z,99.99
2018-11-23T04:01:23.585Z,99.99
2018-11-23T04:02:23.570Z,99.99
2018-11-23T04:03:23.556Z,99.99
2018-11-23T04:04:23.558Z,99.99
2018-11-23T04:05:23.532Z,99.99
2018-11-23T04:06:23.542Z,99.99
2018-11-23T04:07:23.516Z,99.99
2018-11-23T04:08:23.508Z,99.99
2018-11-23T04:09:23.484Z,99.99
2018-11-23T04:10:23.473Z,99.99
2018-11-23T04:11:23.465Z,99.99
2018-11-23T04:12:23.214Z,99.99
2018-11-23T04:13:23.445Z,99.99
2018-11-23T04:14:23.444Z,99.99
2018-11-23T04:15:23.420Z,99.99
2018-11-23T04:16:23.417Z,99.99
2018-11-23T04:17:23.395Z,99.99
2018-11-23T04:18:23.157Z,99.99
2018-11-23T04:19:23.372Z,99.99
2018-11-23T04:20:23.360Z,99.99
2018-11-23T04:21:23.352Z,99.99
2018-11-23T04:22:23.341Z,99.99
2018-11-23T04:23:23.346Z,99.99
2018-11-23T04:24:23.306Z,99.99
2018-11-23T04:25:23.305Z,99.99
2018-11-23T04:26:27.280Z,99.99
2018-11-23T04:27:23.274Z,99.99
2018-11-23T04:28:23.265Z,99.99
2018-11-23T04:29:23.257Z,99.99
2018-11-23T04:30:23.243Z,99.99
2018-11-23T04:31:23.233Z,99.99
2018-11-23T04:32:23.210Z,99.99
2018-11-23T04:33:23.210Z,99.99
2018-11-23T04:34:23.195Z,99.99
2018-11-23T04:35:22.930Z,99.99
2018-11-23T04:36:23.167Z,99.99
2018-11-23T04:37:23.155Z,99.99
2018-11-23T04:38:23.151Z,99.99
2018-11-23T04:39:23.136Z,99.99
2018-11-23T04:40:22.885Z,99.99
2018-11-23T04:41:23.115Z,99.99
2018-11-23T04:42:22.869Z,99.99
2018-11-23T04:43:23.082Z,99.99
2018-11-23T04:44:23.073Z,99.99
2018-11-23T04:45:22.821Z,99.99
2018-11-23T04:46:23.050Z,99.99
2018-11-23T04:47:23.042Z,99.99
2018-11-23T04:48:23.035Z,99.99
2018-11-23T04:49:22.778Z,99.99
2018-11-23T04:50:23.003Z,99.99
2018-11-23T04:51:22.991Z,99.99
2018-11-23T04:52:22.746Z,99.99
2018-11-23T04:53:22.974Z,99.99
2018-11-23T04:54:22.957Z,99.99
2018-11-23T04:55:22.694Z,99.99
2018-11-23T04:56:22.948Z,99.99
2018-11-23T04:57:22.938Z,99.99
2018-11-23T04:58:22.909Z,99.99
2018-11-23T04:59:22.897Z,99.99
2018-11-23T05:00:22.891Z,99.99
2018-11-23T05:01:22.881Z,99.99
2018-11-23T05:02:22.878Z,99.99
2018-11-23T05:03:22.843Z,99.99
2018-11-23T05:04:22.841Z,99.99
2018-11-23T05:05:22.828Z,99.99
2018-11-23T05:06:23.017Z,99.99
2018-11-23T05:07:22.554Z,99.99
2018-11-23T05:08:22.786Z,99.99
2018-11-23T05:09:22.778Z,99.99
2018-11-23T05:10:22.780Z,99.99
2018-11-23T05:11:22.755Z,99.99
2018-11-23T05:12:22.753Z,99.99
2018-11-23T05:13:22.734Z,99.99
2018-11-23T05:14:22.720Z,99.99
2018-11-23T05:15:22.457Z,99.99
2018-11-23T05:16:22.698Z,99.99
2018-11-23T05:17:22.684Z,99.99
2018-11-23T05:18:22.676Z,99.99
2018-11-23T05:19:22.453Z,99.99
2018-11-23T05:20:22.652Z,99.99
2018-11-23T05:21:22.634Z,99.99
2018-11-23T05:22:22.386Z,99.99
2018-11-23T05:23:22.626Z,99.99
2018-11-23T05:24:22.611Z,99.99
2018-11-23T05:25:22.600Z,99.99
2018-11-23T05:26:22.590Z,99.99
2018-11-23T05:27:22.564Z,99.99
2018-11-23T05:28:22.553Z,99.99
2018-11-23T05:29:22.541Z,99.99
2018-11-23T05:30:22.545Z,99.99
2018-11-23T05:31:22.534Z,99.99
2018-11-23T05:32:22.510Z,99.99
2018-11-23T05:33:22.490Z,99.99
2018-11-23T05:34:22.479Z,99.99
2018-11-23T05:35:22.488Z,99.99
2018-11-23T05:36:22.463Z,99.99
2018-11-23T05:37:22.452Z,99.99
2018-11-23T05:38:22.438Z,99.99
2018-11-23T05:39:22.424Z,99.99
2018-11-23T05:40:22.165Z,99.99
2018-11-23T05:41:22.412Z,99.99
2018-11-23T05:42:22.140Z,99.99
2018-11-23T05:43:22.391Z,99.99
2018-11-23T05:44:22.361Z,99.99
2018-11-23T05:45:22.348Z,99.99
2018-11-23T05:46:22.343Z,99.99
2018-11-23T05:47:22.330Z,99.99
2018-11-23T05:48:29.008Z,99.99
2018-11-23T05:49:22.306Z,99.99
2018-11-23T05:50:22.292Z,99.99
2018-11-23T05:51:22.288Z,99.99
2018-11-23T05:52:22.280Z,99.99
2018-11-23T05:53:22.259Z,99.99
2018-11-23T05:54:21.999Z,99.99
2018-11-23T05:55:22.230Z,99.99
2018-11-23T05:56:21.973Z,99.99
2018-11-23T05:57:21.966Z,99.99
2018-11-23T05:58:22.231Z,99.99
2018-11-23T05:59:22.188Z,99.99
2018-11-23T06:00:22.176Z,99.99
2018-11-23T06:01:22.167Z,99.99
2018-11-23T06:02:22.152Z,99.99
2018-11-23T06:03:22.135Z,99.99
2018-11-23T06:04:21.882Z,99.99
2018-11-23T06:05:22.111Z,99.99
2018-11-23T06:06:22.124Z,99.99
2018-11-23T06:07:22.115Z,99.99
2018-11-23T06:08:22.096Z,99.99
2018-11-23T06:09:22.069Z,99.99
2018-11-23T06:10:21.802Z,99.99
2018-11-23T06:11:22.048Z,99.99
2018-11-23T06:12:22.036Z,99.99
2018-11-23T06:13:22.022Z,99.99
2018-11-23T06:14:22.008Z,99.99
2018-11-23T06:15:21.991Z,99.99
2018-11-23T06:16:21.988Z,99.99
2018-11-23T06:17:21.968Z,99.99
2018-11-23T06:18:21.967Z,99.99
2018-11-23T06:19:21.952Z,99.99
2018-11-23T06:20:21.937Z,99.99
2018-11-23T06:21:21.939Z,99.99
2018-11-23T06:22:21.907Z,99.99
2018-11-23T06:23:21.895Z,99.99
2018-11-23T06:24:21.878Z,99.99
2018-11-23T06:25:21.884Z,99.99
2018-11-23T06:26:21.894Z,99.99
2018-11-23T06:27:21.848Z,99.99
2018-11-23T06:28:21.595Z,99.99
2018-11-23T06:29:21.833Z,99.99
2018-11-23T06:30:21.821Z,99.99
2018-11-23T06:31:21.800Z,99.99
2018-11-23T06:32:21.550Z,99.99
2018-11-23T06:33:21.774Z,99.99
2018-11-23T06:34:21.764Z,99.99
2018-11-23T06:35:21.755Z,99.99
2018-11-23T06:36:21.751Z,99.99
2018-11-23T06:37:21.484Z,99.99
2018-11-23T06:38:21.722Z,99.99
2018-11-23T06:39:21.724Z,99.99
2018-11-23T06:40:21.690Z,99.99
2018-11-23T06:41:21.691Z,99.99
2018-11-23T06:42:21.678Z,99.99
2018-11-23T06:43:21.654Z,99.99
2018-11-23T06:44:21.645Z,99.99
2018-11-23T06:45:21.387Z,99.99
2018-11-23T06:46:21.621Z,99.99
2018-11-23T06:47:21.609Z,99.99
2018-11-23T06:48:21.591Z,99.99
2018-11-23T06:49:21.585Z,99.99
2018-11-23T06:50:21.578Z,99.99
2018-11-23T06:51:21.567Z,99.99
2018-11-23T06:52:21.567Z,99.99
2018-11-23T06:53:21.535Z,99.99
2018-11-23T06:54:21.526Z,99.99
2018-11-23T06:55:21.527Z,99.99
2018-11-23T06:56:21.513Z,99.99
2018-11-23T06:57:21.492Z,99.99
2018-11-23T06:58:21.487Z,99.99
2018-11-23T06:59:21.485Z,99.99
2018-11-23T07:00:21.482Z,99.99
2018-11-23T07:01:21.479Z,99.99
2018-11-23T07:02:21.498Z,99.99
2018-11-23T07:03:21.435Z,99.99
2018-11-23T07:04:21.419Z,99.99
2018-11-23T07:05:21.408Z,99.99
2018-11-23T07:06:21.401Z,99.99
2018-11-23T07:07:22.444Z,99.99
2018-11-23T07:08:21.109Z,99.99
2018-11-23T07:09:21.348Z,99.99
2018-11-23T07:10:21.340Z,99.99
2018-11-23T07:11:21.327Z,99.99
2018-11-23T07:12:21.310Z,99.99
2018-11-23T07:13:21.050Z,99.99
2018-11-23T07:14:21.048Z,99.99
2018-11-23T07:15:21.280Z,99.99
2018-11-23T07:16:21.283Z,99.99
2018-11-23T07:17:21.254Z,99.99
2018-11-23T07:18:21.245Z,99.99
2018-11-23T07:19:21.248Z,99.99
2018-11-23T07:20:21.230Z,99.99
2018-11-23T07:21:23.969Z,99.99
2018-11-23T07:22:21.213Z,99.99
2018-11-23T07:23:21.195Z,99.99
2018-11-23T07:24:21.182Z,99.99
2018-11-23T07:25:21.174Z,99.99
2018-11-23T07:26:21.160Z,99.99
2018-11-23T07:27:21.149Z,99.99
2018-11-23T07:28:21.143Z,99.99
2018-11-23T07:29:21.130Z,99.99
2018-11-23T07:30:21.122Z,99.99
2018-11-23T07:31:21.107Z,99.99
2018-11-23T07:32:21.102Z,99.99
2018-11-23T07:33:21.100Z,99.99
2018-11-23T07:34:20.822Z,99.99
2018-11-23T07:35:21.069Z,99.99
2018-11-23T07:36:21.049Z,99.99
2018-11-23T07:37:20.804Z,99.99
2018-11-23T07:38:21.186Z,99.99
2018-11-23T07:39:21.042Z,99.99
2018-11-23T07:40:21.006Z,99.99
2018-11-23T07:41:20.998Z,99.99
2018-11-23T07:42:20.984Z,99.99
2018-11-23T07:43:20.977Z,99.99
2018-11-23T07:44:20.721Z,99.99
2018-11-23T07:45:20.950Z,99.99
2018-11-23T07:46:20.941Z,99.99
2018-11-23T07:47:21.731Z,99.99
2018-11-23T07:48:20.933Z,99.99
2018-11-23T07:49:20.909Z,99.99
2018-11-23T07:50:20.898Z,99.99
2018-11-23T07:51:20.892Z,99.99
2018-11-23T07:52:20.873Z,99.99
2018-11-23T07:53:20.872Z,99.99
2018-11-23T07:54:20.605Z,99.99
2018-11-23T07:55:20.847Z,99.99
2018-11-23T07:56:20.599Z,99.99
2018-11-23T07:57:20.834Z,99.99
2018-11-23T07:58:20.573Z,99.99
2018-11-23T07:59:20.795Z,99.99
2018-11-23T08:00:20.789Z,99.99
2018-11-23T08:01:20.771Z,99.99
2018-11-23T08:02:20.513Z,99.99
2018-11-23T08:03:20.761Z,99.99
2018-11-23T08:04:20.737Z,99.99
2018-11-23T08:05:20.746Z,99.99
2018-11-23T08:06:20.724Z,99.99
2018-11-23T08:07:21.145Z,99.99
2018-11-23T08:08:20.448Z,99.99
2018-11-23T08:09:20.689Z,99.99
2018-11-23T08:10:20.676Z,99.99
2018-11-23T08:11:20.673Z,99.99
2018-11-23T08:12:20.664Z,99.99
2018-11-23T08:13:20.397Z,99.99
2018-11-23T08:14:20.635Z,99.99
2018-11-23T08:15:20.621Z,99.99
2018-11-23T08:16:20.619Z,99.99
2018-11-23T08:17:20.602Z,99.99
2018-11-23T08:18:20.682Z,99.99
2018-11-23T08:19:20.587Z,99.99
2018-11-23T08:20:20.581Z,99.99
2018-11-23T08:21:20.559Z,99.99
2018-11-23T08:22:20.545Z,99.99
2018-11-23T08:23:20.550Z,99.99
2018-11-23T08:24:20.533Z,99.99
2018-11-23T08:25:20.527Z,99.99
2018-11-23T08:26:20.513Z,99.99
2018-11-23T08:27:20.499Z,99.99
2018-11-23T08:28:20.498Z,99.99
2018-11-23T08:29:20.477Z,99.99
2018-11-23T08:30:20.458Z,99.99
2018-11-23T08:31:20.204Z,99.99
2018-11-23T08:32:20.470Z,99.99
2018-11-23T08:33:20.927Z,99.99
2018-11-23T08:34:20.436Z,99.99
2018-11-23T08:35:20.164Z,99.99
2018-11-23T08:36:20.418Z,99.99
2018-11-23T08:37:20.390Z,99.99
2018-11-23T08:38:20.379Z,99.99
2018-11-23T08:39:20.390Z,99.99
2018-11-23T08:40:20.421Z,99.99
2018-11-23T08:41:20.349Z,99.99
2018-11-23T08:42:20.344Z,99.99
2018-11-23T08:43:20.093Z,99.99
2018-11-23T08:44:20.320Z,99.99
2018-11-23T08:45:20.316Z,99.99
2018-11-23T08:46:20.304Z,99.99
2018-11-23T08:47:20.285Z,99.99
2018-11-23T08:48:20.283Z,99.99
2018-11-23T08:49:20.267Z,99.99
2018-11-23T08:50:20.269Z,99.99
2018-11-23T08:51:20.250Z,99.99
2018-11-23T08:52:20.261Z,99.99
2018-11-23T08:53:20.233Z,99.99
2018-11-23T08:54:20.220Z,99.99
2018-11-23T08:55:20.282Z,99.99
2018-11-23T08:56:20.208Z,99.99
2018-11-23T08:57:20.205Z,99.99
2018-11-23T08:58:20.177Z,99.99
2018-11-23T08:59:20.168Z,99.99
2018-11-23T09:00:20.166Z,99.99
2018-11-23T09:01:20.170Z,99.99
2018-11-23T09:02:19.895Z,99.99
2018-11-23T09:03:19.889Z,99.99
2018-11-23T09:04:20.126Z,99.99
2018-11-23T09:05:20.112Z,99.99
2018-11-23T09:06:20.108Z,99.99
2018-11-23T09:07:19.850Z,99.99
2018-11-23T09:08:20.085Z,99.99
2018-11-23T09:09:20.076Z,99.99
2018-11-23T09:10:20.089Z,99.99
2018-11-23T09:11:20.061Z,99.99
2018-11-23T09:12:20.046Z,99.99
2018-11-23T09:13:19.793Z,99.99
2018-11-23T09:14:20.035Z,99.99
2018-11-23T09:15:20.062Z,99.99
2018-11-23T09:16:20.018Z,99.99
2018-11-23T09:17:20.004Z,99.99
2018-11-23T09:18:20.031Z,99.99
2018-11-23T09:19:19.998Z,99.99
2018-11-23T09:20:19.725Z,99.99
2018-11-23T09:21:19.750Z,99.99
2018-11-23T09:22:25.615Z,99.99
2018-11-23T09:23:19.967Z,99.99
2018-11-23T09:24:19.690Z,99.99
2018-11-23T09:25:19.968Z,99.99
2018-11-23T09:26:19.689Z,99.99
2018-11-23T09:27:19.688Z,99.99
2018-11-23T09:28:19.918Z,99.99
2018-11-23T09:29:19.905Z,99.99
2018-11-23T09:30:19.929Z,99.99
2018-11-23T09:31:19.676Z,99.99
2018-11-23T09:32:19.635Z,99.99
2018-11-23T09:33:19.883Z,99.99
2018-11-23T09:34:19.614Z,99.99
2018-11-23T09:35:19.642Z,99.99
2018-11-23T09:36:19.849Z,99.99
2018-11-23T09:37:19.837Z,99.99
2018-11-23T09:38:19.824Z,99.99
2018-11-23T09:39:19.834Z,99.99
2018-11-23T09:40:19.831Z,99.99
2018-11-23T09:41:19.564Z,99.99
2018-11-23T09:42:19.841Z,99.99
2018-11-23T09:43:19.803Z,99.99
2018-11-23T09:44:19.761Z,99.99
2018-11-23T09:45:19.774Z,99.99
2018-11-23T09:46:19.778Z,99.99
2018-11-23T09:47:19.760Z,99.99
2018-11-23T09:48:19.481Z,99.99
2018-11-23T09:49:19.735Z,99.99
2018-11-23T09:50:19.705Z,99.99
2018-11-23T09:51:19.690Z,99.99
2018-11-23T09:52:19.454Z,99.99
2018-11-23T09:53:19.695Z,99.99
2018-11-23T09:54:19.683Z,99.99
2018-11-23T09:55:19.682Z,99.99
2018-11-23T09:56:19.679Z,99.99
2018-11-23T09:57:19.648Z,99.99
2018-11-23T09:58:19.643Z,99.99
2018-11-23T09:59:19.628Z,99.77
2018-11-23T10:00:19.676Z,99.99
2018-11-23T10:01:19.624Z,99.99
2018-11-23T10:02:19.636Z,99.99
2018-11-23T10:03:19.452Z,99.99
2018-11-23T10:04:19.339Z,99.99
2018-11-23T10:05:19.577Z,99.91
2018-11-23T10:06:19.575Z,99.73
2018-11-23T10:07:19.570Z,99.99
2018-11-23T10:08:19.709Z,99.06
2018-11-23T10:09:19.409Z,99.16
2018-11-23T10:10:19.297Z,99.44
2018-11-23T10:11:19.527Z,99.26
2018-11-23T10:12:19.530Z,99.44
2018-11-23T10:13:19.514Z,98.87
2018-11-23T10:14:19.505Z,98.3
2018-11-23T10:15:19.511Z,98.59
2018-11-23T10:16:19.497Z,98.4
2018-11-23T10:17:19.498Z,97.74
2018-11-23T10:18:19.482Z,98.02
2018-11-23T10:19:19.476Z,97.07
2018-11-23T10:20:19.209Z,96.59
2018-11-23T10:21:19.464Z,96.5
2018-11-23T10:22:19.438Z,96.69
2018-11-23T10:23:19.439Z,96.22
2018-11-23T10:24:19.441Z,96.31
2018-11-23T10:25:19.428Z,96.5
2018-11-23T10:26:19.411Z,96.5
2018-11-23T10:27:19.433Z,95.93
2018-11-23T10:28:19.390Z,95.93
2018-11-23T10:29:19.385Z,96.31
2018-11-23T10:30:19.392Z,96.12
2018-11-23T10:31:19.374Z,96.64
2018-11-23T10:32:19.112Z,95.98
2018-11-23T10:33:19.364Z,95.79
2018-11-23T10:34:19.339Z,95.12
2018-11-23T10:35:19.335Z,95.12
2018-11-23T10:36:19.332Z,95.12
2018-11-23T10:37:19.325Z,95.31
2018-11-23T10:38:19.078Z,95.6
2018-11-23T10:39:19.330Z,95.6
2018-11-23T10:40:19.297Z,95.22
2018-11-23T10:41:19.302Z,94.84
2018-11-23T10:42:19.288Z,94.37
2018-11-23T10:43:19.281Z,94.27
2018-11-23T10:44:19.269Z,94.46
2018-11-23T10:45:19.273Z,94.18
2018-11-23T10:46:19.272Z,94.27
2018-11-23T10:47:19.253Z,94.46
2018-11-23T10:48:19.238Z,94.08
2018-11-23T10:49:19.227Z,93.89
2018-11-23T10:50:18.979Z,93.7
2018-11-23T10:51:19.227Z,93.51
2018-11-23T10:52:19.254Z,93.89
2018-11-23T10:53:19.198Z,93.23
2018-11-23T10:54:19.217Z,93.23
2018-11-23T10:55:19.185Z,93.41
2018-11-23T10:56:19.180Z,92.94
2018-11-23T10:57:19.178Z,92.18
2018-11-23T10:58:19.167Z,92.47
2018-11-23T10:59:19.170Z,92.71
2018-11-23T11:00:19.160Z,92.23
2018-11-23T11:01:19.161Z,91.94
2018-11-23T11:02:19.151Z,91.94
2018-11-23T11:03:19.134Z,92.04
2018-11-23T11:04:19.120Z,91.66
2018-11-23T11:05:19.112Z,91.75
2018-11-23T11:06:19.112Z,91.75
2018-11-23T11:07:18.847Z,92.04
2018-11-23T11:08:20.695Z,91.94
2018-11-23T11:09:19.088Z,91.75
2018-11-23T11:10:19.080Z,91.85
2018-11-23T11:11:19.071Z,91.75
2018-11-23T11:12:18.825Z,91.38
2018-11-23T11:13:19.055Z,91.09
2018-11-23T11:14:19.071Z,91.19
2018-11-23T11:15:19.044Z,90.61
2018-11-23T11:16:18.786Z,90.99
2018-11-23T11:17:19.037Z,90.9
2018-11-23T11:18:19.023Z,90.61
2018-11-23T11:19:19.015Z,90.23
2018-11-23T11:20:18.763Z,90.23
2018-11-23T11:21:18.750Z,90.33
2018-11-23T11:22:18.987Z,90.05
2018-11-23T11:23:18.981Z,89.57
2018-11-23T11:24:18.739Z,89.23
2018-11-23T11:25:18.985Z,89.23
2018-11-23T11:26:18.968Z,89.28
2018-11-23T11:27:18.968Z,89.33
2018-11-23T11:28:18.953Z,89.23
2018-11-23T11:29:18.931Z,89.04
2018-11-23T11:30:18.943Z,89.33
2018-11-23T11:31:18.931Z,88.67
2018-11-23T11:32:18.678Z,88.76
2018-11-23T11:33:18.916Z,88.67
2018-11-23T11:34:18.918Z,88.67
2018-11-23T11:35:18.904Z,88.67
2018-11-23T11:36:18.919Z,88.76
2018-11-23T11:37:18.642Z,88.28
2018-11-23T11:38:18.891Z,88.57
2018-11-23T11:39:20.620Z,88.09
2018-11-23T11:40:18.630Z,87.52
2018-11-23T11:41:18.619Z,87.81
2018-11-23T11:42:18.875Z,87.62
2018-11-23T11:43:18.860Z,86.95
2018-11-23T11:44:18.850Z,87.14
2018-11-23T11:45:18.590Z,87.05
2018-11-23T11:46:18.840Z,86.95
2018-11-23T11:47:18.837Z,86.95
2018-11-23T11:48:18.919Z,86.43
2018-11-23T11:49:18.909Z,86.24
2018-11-23T11:50:18.798Z,86.33
2018-11-23T11:51:20.178Z,86.43
2018-11-23T11:52:18.785Z,86.33
2018-11-23T11:53:18.780Z,85.76
2018-11-23T11:54:18.787Z,86.33
2018-11-23T11:55:18.766Z,86.24
2018-11-23T11:56:18.758Z,86.24
2018-11-23T11:57:18.763Z,86.33
2018-11-23T11:58:18.743Z,85.76
2018-11-23T11:59:18.747Z,85.66
2018-11-23T12:00:18.729Z,85.57
2018-11-23T12:01:18.738Z,85.38
2018-11-23T12:02:18.480Z,85.47
2018-11-23T12:03:18.725Z,85.76
2018-11-23T12:04:18.722Z,85.47
2018-11-23T12:05:18.705Z,85.28
2018-11-23T12:06:18.700Z,85.28
2018-11-23T12:07:18.704Z,85.57
2018-11-23T12:08:18.703Z,84.91
2018-11-23T12:09:18.702Z,85
2018-11-23T12:10:18.697Z,85.19
2018-11-23T12:11:18.720Z,85.57
2018-11-23T12:12:18.676Z,85.57
2018-11-23T12:13:18.416Z,85.47
2018-11-23T12:14:18.661Z,85.76
2018-11-23T12:15:18.659Z,85.52
2018-11-23T12:16:18.651Z,85.57
2018-11-23T12:17:18.642Z,85.61
2018-11-23T12:18:18.647Z,84.95
2018-11-23T12:19:18.681Z,85.14
2018-11-23T12:20:18.376Z,84.56
2018-11-23T12:21:18.621Z,84.28
2018-11-23T12:22:18.616Z,84.38
2018-11-23T12:23:18.613Z,84.47
2018-11-23T12:24:18.611Z,84.38
2018-11-23T12:25:18.602Z,84.56
2018-11-23T12:26:18.588Z,84.66
2018-11-23T12:27:18.604Z,84.09
2018-11-23T12:28:18.591Z,84.28
2018-11-23T12:29:18.589Z,84.28
2018-11-23T12:30:18.321Z,84.28
2018-11-23T12:31:18.561Z,83.81
2018-11-23T12:32:18.556Z,83.71
2018-11-23T12:33:18.555Z,84.28
2018-11-23T12:34:18.542Z,83.9
2018-11-23T12:35:18.537Z,83.81
2018-11-23T12:36:18.541Z,84
2018-11-23T12:37:18.543Z,84.09
2018-11-23T12:38:18.329Z,84.56
2018-11-23T12:39:18.519Z,84.47
2018-11-23T12:40:18.266Z,84
2018-11-23T12:41:18.258Z,83.9
2018-11-23T12:42:18.503Z,84
2018-11-23T12:43:18.498Z,84
2018-11-23T12:44:18.515Z,84.56
2018-11-23T12:45:18.485Z,84.56
2018-11-23T12:46:18.474Z,83.9
2018-11-23T12:47:18.227Z,83.9
2018-11-23T12:48:18.471Z,83.81
2018-11-23T12:49:18.474Z,84.19
2018-11-23T12:50:18.457Z,83.71
2018-11-23T12:51:18.473Z,83.62
2018-11-23T12:52:18.442Z,83.71
2018-11-23T12:53:18.443Z,83.52